createdAt,value
2018-07-11T00:00:10.016Z,1.90
2018-07-11T00:02:38.248Z,1.80
2018-07-11T00:05:06.525Z,3.30
2018-07-11T00:07:34.749Z,2.53
2018-07-11T00:10:03.115Z,1.97
2018-07-11T00:12:31.325Z,5.13
2018-07-11T00:14:59.559Z,2.00
2018-07-11T00:17:27.733Z,2.07
2018-07-11T00:19:56.029Z,2.67
2018-07-11T00:22:24.293Z,3.47
2018-07-11T00:24:52.556Z,3.20
2018-07-11T00:27:20.800Z,2.13
2018-07-11T00:29:49.040Z,2.30
2018-07-11T00:32:17.512Z,4.37
2018-07-11T00:34:45.800Z,2.03
2018-07-11T00:37:14.120Z,3.07
2018-07-11T00:39:42.329Z,2.03
2018-07-11T00:42:10.581Z,2.77
2018-07-11T00:44:38.850Z,1.83
2018-07-11T00:47:07.114Z,2.10
2018-07-11T00:49:35.341Z,2.53
2018-07-11T00:52:03.578Z,6.37
2018-07-11T00:54:31.821Z,2.47
2018-07-11T00:57:00.502Z,2.40
2018-07-11T00:59:30.239Z,3.43
2018-07-11T01:02:03.951Z,2.17
2018-07-11T01:04:32.587Z,2.87
2018-07-11T01:07:04.013Z,2.10
2018-07-11T01:09:33.024Z,2.40
2018-07-11T01:12:01.273Z,2.73
2018-07-11T01:14:29.513Z,4.83
2018-07-11T01:16:57.768Z,3.80
2018-07-11T01:19:26.025Z,2.43
2018-07-11T01:22:02.109Z,2.53
2018-07-11T01:24:31.208Z,3.83
2018-07-11T01:27:00.352Z,2.97
2018-07-11T01:29:28.579Z,2.60
2018-07-11T01:31:56.852Z,2.27
2018-07-11T01:34:25.073Z,2.43
2018-07-11T01:36:53.297Z,4.20
2018-07-11T01:39:21.540Z,4.23
2018-07-11T01:41:49.789Z,3.80
2018-07-11T01:44:18.021Z,3.03
2018-07-11T01:46:48.264Z,4.20
2018-07-11T01:49:16.508Z,3.07
2018-07-11T01:51:56.708Z,5.13
2018-07-11T01:54:25.260Z,3.27
2018-07-11T01:56:53.548Z,2.90
2018-07-11T01:59:22.251Z,2.50
2018-07-11T02:01:50.729Z,3.80
2018-07-11T02:04:18.993Z,3.03
2018-07-11T02:06:47.237Z,2.77
2018-07-11T02:09:15.512Z,6.20
2018-07-11T02:11:43.764Z,4.10
2018-07-11T02:14:12.091Z,4.57
2018-07-11T02:16:40.338Z,4.27
2018-07-11T02:19:08.592Z,5.03
2018-07-11T02:21:36.861Z,4.00
2018-07-11T02:24:05.556Z,4.30
2018-07-11T02:26:33.800Z,4.50
2018-07-11T02:29:02.119Z,4.60
2018-07-11T02:31:30.413Z,5.30
2018-07-11T02:33:58.896Z,4.10
2018-07-11T02:36:27.161Z,3.80
2018-07-11T02:38:55.398Z,3.83
2018-07-11T02:41:23.645Z,4.07
2018-07-11T02:43:51.842Z,3.00
2018-07-11T02:46:24.262Z,3.50
2018-07-11T02:48:52.493Z,3.40
2018-07-11T02:51:20.737Z,3.37
2018-07-11T02:53:48.969Z,3.67
2018-07-11T02:56:17.201Z,3.13
2018-07-11T02:58:45.441Z,3.97
2018-07-11T03:01:13.678Z,4.00
2018-07-11T03:03:41.917Z,4.13
2018-07-11T03:06:10.136Z,4.13
2018-07-11T03:08:38.953Z,4.43
2018-07-11T03:11:07.200Z,5.07
2018-07-11T03:13:35.610Z,6.47
2018-07-11T03:16:03.850Z,7.30
2018-07-11T03:18:32.176Z,7.43
2018-07-11T03:21:00.454Z,7.03
2018-07-11T03:23:28.728Z,6.13
2018-07-11T03:25:57.015Z,5.40
2018-07-11T03:28:25.252Z,5.50
2018-07-11T03:30:53.461Z,6.60
2018-07-11T03:33:21.688Z,6.03
2018-07-11T03:35:49.939Z,10.70
2018-07-11T03:38:18.253Z,6.67
2018-07-11T03:40:46.505Z,5.97
2018-07-11T03:43:14.732Z,6.50
2018-07-11T03:45:42.960Z,5.50
2018-07-11T03:48:11.216Z,6.73
2018-07-11T03:50:39.445Z,8.70
2018-07-11T03:53:07.693Z,6.17
2018-07-11T03:55:35.930Z,6.17
2018-07-11T03:58:04.138Z,10.33
2018-07-11T04:00:32.349Z,11.37
2018-07-11T04:03:00.629Z,14.77
2018-07-11T04:05:28.837Z,8.80
2018-07-11T04:07:57.146Z,10.87
2018-07-11T04:10:25.333Z,10.27
2018-07-11T04:13:01.534Z,13.47
2018-07-11T04:15:29.802Z,11.87
2018-07-11T04:17:58.036Z,8.57
2018-07-11T04:20:26.331Z,10.50
2018-07-11T04:22:54.584Z,12.53
2018-07-11T04:25:22.933Z,10.40
2018-07-11T04:27:51.188Z,12.67
2018-07-11T04:30:19.479Z,13.50
2018-07-11T04:32:47.781Z,11.27
2018-07-11T04:35:16.004Z,13.27
2018-07-11T04:37:44.256Z,13.53
2018-07-11T04:40:12.541Z,16.23
2018-07-11T04:42:40.807Z,17.00
2018-07-11T04:45:09.085Z,18.20
2018-07-11T04:47:37.357Z,20.87
2018-07-11T04:50:05.604Z,19.20
2018-07-11T04:52:33.868Z,20.07
2018-07-11T04:55:02.101Z,20.47
2018-07-11T04:57:30.354Z,20.00
2018-07-11T04:59:58.784Z,20.47
2018-07-11T05:02:27.073Z,18.73
2018-07-11T05:04:55.274Z,18.87
2018-07-11T05:07:23.488Z,27.53
2018-07-11T05:09:51.716Z,21.73
2018-07-11T05:12:20.888Z,23.50
2018-07-11T05:14:49.096Z,24.43
2018-07-11T05:17:17.423Z,27.77
2018-07-11T05:19:45.616Z,23.23
2018-07-11T05:22:13.841Z,27.90
2018-07-11T05:24:42.120Z,28.53
2018-07-11T05:27:10.404Z,27.33
2018-07-11T05:29:38.604Z,27.07
2018-07-11T05:32:06.855Z,24.47
2018-07-11T05:34:35.132Z,28.77
2018-07-11T05:37:03.389Z,29.07
2018-07-11T05:39:31.648Z,20.67
2018-07-11T05:41:59.864Z,24.83
2018-07-11T05:44:28.105Z,23.30
2018-07-11T05:47:01.644Z,24.53
2018-07-11T05:49:30.317Z,23.03
2018-07-11T05:51:58.596Z,20.70
2018-07-11T05:54:26.817Z,21.43
2018-07-11T05:56:55.013Z,21.90
2018-07-11T05:59:23.447Z,23.90
2018-07-11T06:01:51.708Z,24.93
2018-07-11T06:04:20.248Z,23.23
2018-07-11T06:06:48.728Z,21.50
2018-07-11T06:09:17.105Z,21.47
2018-07-11T06:11:45.322Z,23.70
2018-07-11T06:14:13.572Z,19.67
2018-07-11T06:16:41.848Z,20.57
2018-07-11T06:19:10.164Z,18.80
2018-07-11T06:21:38.501Z,17.73
2018-07-11T06:24:07.153Z,20.90
2018-07-11T06:26:35.412Z,23.20
2018-07-11T06:29:03.641Z,21.10
2018-07-11T06:31:31.860Z,23.37
2018-07-11T06:34:00.085Z,21.37
2018-07-11T06:36:28.309Z,20.53
2018-07-11T06:38:56.584Z,19.23
2018-07-11T06:41:24.801Z,18.23
2018-07-11T06:43:53.285Z,22.43
2018-07-11T06:46:21.513Z,22.30
2018-07-11T06:48:49.748Z,19.90
2018-07-11T06:51:17.989Z,20.57
2018-07-11T06:53:46.209Z,21.47
2018-07-11T06:56:14.417Z,23.67
2018-07-11T06:58:42.661Z,19.47
2018-07-11T07:01:10.914Z,23.97
2018-07-11T07:03:39.453Z,20.23
2018-07-11T07:06:07.636Z,23.43
2018-07-11T07:08:35.841Z,19.63
2018-07-11T07:11:04.072Z,21.63
2018-07-11T07:13:32.306Z,20.80
2018-07-11T07:16:00.526Z,22.50
2018-07-11T07:18:28.765Z,17.80
2018-07-11T07:20:57.005Z,22.30
2018-07-11T07:23:25.227Z,20.80
2018-07-11T07:25:53.449Z,18.57
2018-07-11T07:28:21.688Z,23.70
2018-07-11T07:30:49.944Z,21.90
2018-07-11T07:33:18.192Z,18.50
2018-07-11T07:35:46.504Z,18.27
2018-07-11T07:38:14.705Z,22.20
2018-07-11T07:40:42.908Z,17.50
2018-07-11T07:43:11.149Z,17.47
2018-07-11T07:45:40.600Z,21.77
2018-07-11T07:48:08.873Z,18.37
2018-07-11T07:50:37.152Z,19.70
2018-07-11T07:53:05.463Z,21.30
2018-07-11T07:55:33.745Z,19.57
2018-07-11T07:58:02.048Z,16.63
2018-07-11T08:00:30.325Z,18.97
2018-07-11T08:02:59.032Z,15.50
2018-07-11T08:05:27.289Z,15.70
2018-07-11T08:07:55.537Z,13.90
2018-07-11T08:10:23.892Z,17.77
2018-07-11T08:12:52.110Z,17.37
2018-07-11T08:15:20.334Z,18.20
2018-07-11T08:17:48.558Z,16.13
2018-07-11T08:20:16.798Z,17.07
2018-07-11T08:23:23.046Z,21.17
2018-07-11T08:26:03.605Z,22.50
2018-07-11T08:30:46.961Z,17.53
2018-07-11T08:35:33.611Z,18.83
2018-07-11T08:38:24.306Z,14.83
2018-07-11T08:41:16.279Z,16.70
2018-07-11T08:47:01.899Z,13.60
2018-07-11T08:49:40.306Z,14.37
2018-07-11T08:52:49.884Z,13.37
2018-07-11T08:56:41.157Z,15.00
2018-07-11T08:59:20.881Z,14.77
2018-07-11T09:03:02.277Z,15.57
2018-07-11T09:07:48.101Z,14.00
2018-07-11T09:12:31.780Z,16.67
2018-07-11T09:15:11.324Z,9.93
2018-07-11T09:18:20.245Z,11.80
2018-07-11T09:21:17.773Z,8.37
2018-07-11T09:23:57.376Z,12.03
2018-07-11T09:26:25.592Z,8.30
2018-07-11T09:28:53.878Z,8.30
2018-07-11T09:31:22.116Z,7.73
2018-07-11T09:33:50.569Z,11.63
2018-07-11T09:36:18.841Z,10.80
2018-07-11T09:38:47.162Z,11.10
2018-07-11T09:41:15.340Z,9.07
2018-07-11T09:43:43.837Z,10.33
2018-07-11T09:46:12.077Z,13.30
2018-07-11T09:48:40.305Z,11.57
2018-07-11T09:51:08.985Z,9.17
2018-07-11T09:53:37.632Z,11.50
2018-07-11T09:56:06.329Z,9.30
2018-07-11T09:58:34.589Z,9.73
2018-07-11T10:01:08.244Z,15.23
2018-07-11T10:03:36.508Z,9.33
2018-07-11T10:06:04.785Z,8.90
2018-07-11T10:08:33.020Z,9.70
2018-07-11T10:11:01.235Z,9.07
2018-07-11T10:13:29.436Z,9.87
2018-07-11T10:15:57.681Z,8.70
2018-07-11T10:18:25.912Z,12.00
2018-07-11T10:20:54.129Z,7.27
2018-07-11T10:23:22.344Z,10.10
2018-07-11T10:25:50.628Z,12.40
2018-07-11T10:28:20.080Z,11.70
2018-07-11T10:30:48.688Z,7.13
2018-07-11T10:33:16.931Z,7.90
2018-07-11T10:35:45.145Z,11.10
2018-07-11T10:38:13.538Z,9.90
2018-07-11T10:40:41.865Z,7.93
2018-07-11T10:43:10.429Z,11.43
2018-07-11T10:45:38.674Z,8.33
2018-07-11T10:48:06.906Z,8.40
2018-07-11T10:50:35.159Z,9.40
2018-07-11T10:53:03.344Z,10.53
2018-07-11T10:55:31.581Z,9.40
2018-07-11T10:57:59.887Z,6.70
2018-07-11T11:00:36.664Z,13.07
2018-07-11T11:02:58.790Z,15.90
2018-07-11T11:05:27.012Z,7.00
2018-07-11T11:07:55.279Z,6.23
2018-07-11T11:10:23.489Z,5.20
2018-07-11T11:12:51.716Z,5.50
2018-07-11T11:15:19.932Z,6.63
2018-07-11T11:17:48.145Z,5.30
2018-07-11T11:20:16.376Z,6.40
2018-07-11T11:22:44.677Z,3.80
2018-07-11T11:25:12.925Z,5.47
2018-07-11T11:27:41.153Z,6.40
2018-07-11T11:30:09.360Z,3.63
2018-07-11T11:32:37.598Z,6.37
2018-07-11T11:35:06.117Z,6.20
2018-07-11T11:37:34.397Z,6.97
2018-07-11T11:40:02.642Z,6.43
2018-07-11T11:42:31.253Z,5.07
2018-07-11T11:44:59.101Z,4.37
2018-07-11T11:47:28.496Z,3.87
2018-07-11T11:49:57.498Z,7.83
2018-07-11T11:52:26.006Z,5.70
2018-07-11T11:54:54.693Z,7.33
2018-07-11T11:57:23.357Z,3.47
2018-07-11T11:59:51.906Z,2.20
2018-07-11T12:02:20.216Z,7.57
2018-07-11T12:04:48.456Z,3.60
2018-07-11T12:07:16.744Z,5.77
2018-07-11T12:09:45.017Z,6.33
2018-07-11T12:12:13.275Z,3.13
2018-07-11T12:14:41.476Z,9.00
2018-07-11T12:17:09.789Z,6.17
2018-07-11T12:19:38.037Z,3.63
2018-07-11T12:22:06.436Z,4.93
2018-07-11T12:24:34.710Z,4.27
2018-07-11T12:27:03.025Z,9.17
2018-07-11T12:29:31.240Z,8.63
2018-07-11T12:31:59.461Z,3.33
2018-07-11T12:34:27.685Z,3.80
2018-07-11T12:36:56.711Z,5.67
2018-07-11T12:39:24.984Z,3.07
2018-07-11T12:41:53.245Z,3.93
2018-07-11T12:44:21.500Z,4.43
2018-07-11T12:46:49.760Z,6.17
2018-07-11T12:49:18.026Z,2.63
2018-07-11T12:51:46.257Z,3.73
2018-07-11T12:54:14.514Z,4.87
2018-07-11T12:56:42.745Z,6.00
2018-07-11T12:59:11.014Z,5.10
2018-07-11T13:01:39.326Z,5.10
2018-07-11T13:04:07.669Z,3.97
2018-07-11T13:06:37.528Z,6.27
2018-07-11T13:09:06.714Z,5.20
2018-07-11T13:11:35.014Z,7.53
2018-07-11T13:14:03.301Z,5.53
2018-07-11T13:16:31.621Z,5.70
2018-07-11T13:18:59.808Z,4.37
2018-07-11T13:21:28.048Z,5.63
2018-07-11T13:23:56.272Z,2.83
2018-07-11T13:26:24.484Z,4.53
2018-07-11T13:28:52.741Z,2.90
2018-07-11T13:31:21.013Z,5.03
2018-07-11T13:33:49.336Z,4.53
2018-07-11T13:36:17.565Z,3.57
2018-07-11T13:38:45.785Z,5.23
2018-07-11T13:41:14.100Z,3.87
2018-07-11T13:43:42.360Z,2.37
2018-07-11T13:46:10.591Z,6.53
2018-07-11T13:48:38.798Z,5.70
2018-07-11T13:51:07.053Z,4.67
2018-07-11T13:53:35.336Z,5.03
2018-07-11T13:56:03.620Z,4.73
2018-07-11T13:58:31.883Z,5.60
2018-07-11T14:01:00.247Z,4.73
2018-07-11T14:03:28.504Z,3.53
2018-07-11T14:05:56.745Z,6.33
2018-07-11T14:08:25.924Z,4.87
2018-07-11T14:10:54.345Z,2.67
2018-07-11T14:13:22.588Z,3.50
2018-07-11T14:15:50.791Z,5.00
2018-07-11T14:18:18.997Z,6.97
2018-07-11T14:20:47.204Z,5.23
2018-07-11T14:23:20.593Z,4.70
2018-07-11T14:25:49.532Z,6.67
2018-07-11T14:28:24.400Z,3.77
2018-07-11T14:30:52.641Z,5.30
2018-07-11T14:33:21.454Z,10.87
2018-07-11T14:35:49.681Z,6.00
2018-07-11T14:38:17.941Z,4.37
2018-07-11T14:40:46.191Z,7.37
2018-07-11T14:43:14.421Z,8.10
2018-07-11T14:45:42.706Z,5.00
2018-07-11T14:48:15.169Z,6.33
2018-07-11T14:50:43.824Z,5.40
2018-07-11T14:53:12.193Z,5.43
2018-07-11T14:55:40.445Z,6.47
2018-07-11T14:58:08.689Z,7.33
2018-07-11T15:00:36.937Z,8.07
2018-07-11T15:03:05.196Z,4.57
2018-07-11T15:05:33.444Z,5.97
2018-07-11T15:08:01.739Z,5.10
2018-07-11T15:10:30.010Z,6.23
2018-07-11T15:12:58.280Z,7.03
2018-07-11T15:15:26.521Z,6.93
2018-07-11T15:17:54.748Z,6.37
2018-07-11T15:20:23.021Z,9.73
2018-07-11T15:22:51.333Z,5.40
2018-07-11T15:25:19.549Z,6.20
2018-07-11T15:27:47.824Z,8.53
2018-07-11T15:30:16.085Z,8.80
2018-07-11T15:32:44.404Z,7.57
2018-07-11T15:35:12.608Z,6.83
2018-07-11T15:37:40.857Z,10.87
2018-07-11T15:40:09.121Z,7.03
2018-07-11T15:42:37.381Z,7.77
2018-07-11T15:45:05.968Z,6.07
2018-07-11T15:47:35.737Z,8.60
2018-07-11T15:50:04.189Z,7.27
2018-07-11T15:52:34.458Z,7.33
2018-07-11T15:55:04.485Z,8.73
2018-07-11T15:57:35.201Z,7.67
2018-07-11T16:00:08.773Z,6.60
2018-07-11T16:02:46.934Z,7.33
2018-07-11T16:05:18.415Z,8.10
2018-07-11T16:07:48.770Z,7.80
2018-07-11T16:10:18.676Z,6.63
2018-07-11T16:12:46.973Z,9.27
2018-07-11T16:15:15.228Z,6.97
2018-07-11T16:17:43.453Z,7.53
2018-07-11T16:20:11.673Z,9.93
2018-07-11T16:22:39.920Z,8.83
2018-07-11T16:25:08.145Z,8.77
2018-07-11T16:27:36.461Z,12.17
2018-07-11T16:30:04.802Z,7.43
2018-07-11T16:32:33.047Z,7.07
2018-07-11T16:35:01.273Z,8.93
2018-07-11T16:37:29.521Z,10.43
2018-07-11T16:39:57.772Z,12.57
2018-07-11T16:42:26.005Z,9.13
2018-07-11T16:44:54.257Z,7.90
2018-07-11T16:47:22.580Z,8.33
2018-07-11T16:49:50.974Z,7.47
2018-07-11T16:52:19.253Z,8.17
2018-07-11T16:54:47.529Z,14.00
2018-07-11T16:57:21.435Z,7.97
2018-07-11T16:59:56.688Z,9.47
2018-07-11T17:02:26.061Z,8.33
2018-07-11T17:04:55.900Z,12.20
2018-07-11T17:07:25.609Z,7.20
2018-07-11T17:09:56.369Z,9.67
2018-07-11T17:12:25.492Z,8.93
2018-07-11T17:14:57.761Z,9.77
2018-07-11T17:17:30.348Z,9.63
2018-07-11T17:20:04.077Z,9.20
2018-07-11T17:22:35.173Z,9.30
2018-07-11T17:25:06.433Z,11.07
2018-07-11T17:27:34.741Z,9.07
2018-07-11T17:30:03.980Z,8.97
2018-07-11T17:32:32.581Z,12.27
2018-07-11T17:35:00.852Z,13.17
2018-07-11T17:37:32.494Z,10.93
2018-07-11T17:40:08.905Z,8.83
2018-07-11T17:42:37.164Z,11.20
2018-07-11T17:45:14.615Z,9.70
2018-07-11T17:49:59.305Z,9.70
2018-07-11T17:52:28.612Z,7.30
2018-07-11T17:55:14.269Z,6.57
2018-07-11T17:57:52.021Z,8.37
2018-07-11T18:00:56.969Z,9.77
2018-07-11T18:03:41.950Z,12.13
2018-07-11T18:06:25.600Z,10.30
2018-07-11T18:09:05.569Z,9.20
2018-07-11T18:12:44.338Z,7.97
2018-07-11T18:15:26.890Z,7.07
2018-07-11T18:18:16.946Z,7.93
2018-07-11T18:20:51.369Z,10.70
2018-07-11T18:23:44.481Z,8.43
2018-07-11T18:26:18.913Z,7.20
2018-07-11T18:28:59.365Z,7.80
2018-07-11T18:31:46.105Z,8.13
2018-07-11T18:34:27.323Z,8.67
2018-07-11T18:37:07.785Z,9.53
2018-07-11T18:39:44.403Z,10.73
2018-07-11T18:42:49.081Z,7.70
2018-07-11T18:48:31.245Z,7.63
2018-07-11T18:51:06.421Z,7.87
2018-07-11T18:54:13.989Z,8.23
2018-07-11T18:56:57.960Z,9.37
2018-07-11T18:59:35.406Z,8.33
2018-07-11T19:02:14.435Z,6.70
2018-07-11T19:05:22.264Z,9.20
2018-07-11T19:07:55.314Z,7.13
2018-07-11T19:11:36.261Z,8.50
2018-07-11T19:14:08.905Z,8.00
2018-07-11T19:16:56.845Z,8.17
2018-07-11T19:19:33.024Z,9.07
2018-07-11T19:22:03.273Z,9.50
2018-07-11T19:24:49.017Z,7.37
2018-07-11T19:27:31.109Z,9.10
2018-07-11T19:30:22.165Z,8.30
2018-07-11T19:33:00.944Z,10.13
2018-07-11T19:37:42.908Z,9.73
2018-07-11T19:40:15.094Z,11.43
2018-07-11T19:45:29.403Z,8.43
2018-07-11T19:50:16.948Z,11.20
2018-07-11T19:52:53.585Z,9.10
2018-07-11T19:56:37.157Z,9.93
2018-07-11T19:59:05.420Z,10.10
2018-07-11T20:01:33.668Z,10.43
2018-07-11T20:04:01.965Z,9.83
2018-07-11T20:06:30.308Z,10.20
2018-07-11T20:08:58.641Z,9.90
2018-07-11T20:11:26.910Z,9.57
2018-07-11T20:13:55.491Z,11.70
2018-07-11T20:16:24.386Z,10.10
2018-07-11T20:18:52.767Z,10.47
2018-07-11T20:21:21.685Z,11.80
2018-07-11T20:23:49.988Z,10.33
2018-07-11T20:26:19.096Z,11.43
2018-07-11T20:28:47.373Z,10.57
2018-07-11T20:31:16.058Z,11.97
2018-07-11T20:33:44.364Z,8.17
2018-07-11T20:36:12.845Z,10.27
2018-07-11T20:38:41.745Z,9.93
2018-07-11T20:41:10.136Z,10.97
2018-07-11T20:43:38.404Z,15.13
2018-07-11T20:46:07.337Z,10.23
2018-07-11T20:48:37.256Z,14.23
2018-07-11T20:51:05.743Z,14.10
2018-07-11T20:53:33.978Z,11.77
2018-07-11T20:56:02.180Z,13.83
2018-07-11T20:58:41.605Z,16.47
2018-07-11T21:01:21.140Z,15.93
2018-07-11T21:07:09.759Z,18.57
2018-07-11T21:09:49.777Z,16.60
2018-07-11T21:14:32.029Z,19.23
2018-07-11T21:17:14.780Z,16.17
2018-07-11T21:19:43.038Z,17.27
2018-07-11T21:22:11.237Z,16.07
2018-07-11T21:24:39.497Z,18.87
2018-07-11T21:27:07.763Z,17.40
2018-07-11T21:29:36.040Z,18.07
2018-07-11T21:32:04.292Z,18.30
2018-07-11T21:34:32.531Z,17.40
2018-07-11T21:37:00.845Z,18.33
2018-07-11T21:39:29.193Z,16.13
2018-07-11T21:41:57.444Z,18.87
2018-07-11T21:44:25.692Z,17.90
2018-07-11T21:46:53.913Z,20.90
2018-07-11T21:49:23.031Z,18.90
2018-07-11T21:51:51.657Z,17.10
2018-07-11T21:54:19.905Z,18.37
2018-07-11T21:56:48.121Z,18.00
2018-07-11T21:59:16.367Z,17.13
2018-07-11T22:01:44.601Z,17.10
2018-07-11T22:04:12.856Z,20.13
2018-07-11T22:06:41.077Z,20.23
2018-07-11T22:09:09.333Z,16.63
2018-07-11T22:11:37.565Z,22.97
2018-07-11T22:14:05.868Z,19.73
2018-07-11T22:16:34.141Z,17.37
2018-07-11T22:19:02.394Z,17.93
2018-07-11T22:21:29.509Z,17.20
2018-07-11T22:23:56.629Z,17.17
2018-07-11T22:26:23.740Z,19.63
2018-07-11T22:28:50.864Z,20.43
2018-07-11T22:31:17.968Z,21.63
2018-07-11T22:33:45.113Z,22.17
2018-07-11T22:36:12.224Z,23.80
2018-07-11T22:38:39.368Z,16.67
2018-07-11T22:41:06.488Z,21.37
2018-07-11T22:43:33.614Z,24.17
2018-07-11T22:46:00.755Z,19.37
2018-07-11T22:48:27.857Z,20.33
2018-07-11T22:50:54.976Z,19.53
2018-07-11T22:53:22.133Z,22.37
2018-07-11T22:55:49.274Z,19.10
2018-07-11T22:58:16.400Z,20.67
2018-07-11T23:00:43.521Z,20.93
2018-07-11T23:03:10.638Z,22.33
2018-07-11T23:05:37.772Z,21.90
2018-07-11T23:08:04.909Z,19.03
2018-07-11T23:10:32.025Z,23.73
2018-07-11T23:12:59.277Z,22.47
2018-07-11T23:15:26.384Z,22.93
2018-07-11T23:17:53.500Z,22.77
2018-07-11T23:20:20.683Z,20.33
2018-07-11T23:22:47.749Z,20.33
2018-07-11T23:25:14.874Z,22.80
2018-07-11T23:27:41.988Z,22.77
2018-07-11T23:30:09.117Z,23.63
2018-07-11T23:32:36.236Z,25.23
2018-07-11T23:35:03.361Z,21.23
2018-07-11T23:37:30.472Z,19.77
2018-07-11T23:39:57.599Z,20.53
2018-07-11T23:42:24.717Z,25.57
2018-07-11T23:44:51.838Z,22.57
2018-07-11T23:47:18.945Z,21.03
2018-07-11T23:49:46.070Z,24.30
2018-07-11T23:52:13.181Z,17.93
2018-07-11T23:54:40.309Z,19.93
2018-07-11T23:57:07.421Z,19.97
2018-07-11T23:59:34.573Z,18.43
